Time,TemperatureF,DewpointF,PressureIn,WindDirection,WindDirectionDegrees,WindSpeedMPH,WindSpeedGustMPH,Humidity,HourlyPrecipIn,Conditions,Clouds,dailyrainin,SolarRadiationWatts/m^2,SoftwareType,DateUTC
2013-05-21 00:01:00,53.0,46.0,30.12,SSE,166,3.0,4.0,75,-99.99,,,-99.99,-0.100000,,2013-05-21 06:01:00,
2013-05-21 00:11:00,53.0,46.0,30.11,SE,133,4.0,5.0,76,-99.99,,,-99.99,0.000000,,2013-05-21 06:11:00,
2013-05-21 00:21:00,52.0,45.0,30.11,South,177,4.0,5.0,78,-99.99,,,-99.99,-0.100000,,2013-05-21 06:21:00,
2013-05-21 00:32:00,52.0,44.0,30.11,South,189,3.0,5.0,73,-99.99,,,-99.99,0.200000,,2013-05-21 06:32:00,
2013-05-21 00:41:00,53.0,43.0,30.11,SE,126,2.0,3.0,69,-99.99,,,-99.99,0.000000,,2013-05-21 06:41:00,
2013-05-21 00:51:00,52.0,44.0,30.10,SSE,148,2.0,3.0,74,-99.99,,,-99.99,-0.100000,,2013-05-21 06:51:00,
2013-05-21 01:01:00,51.0,44.0,30.10,ENE,74,4.0,5.0,75,-99.99,,,-99.99,0.000000,,2013-05-21 07:01:00,
2013-05-21 01:11:00,50.0,45.0,30.10,NNE,33,4.0,4.0,80,-99.99,,,-99.99,-0.100000,,2013-05-21 07:11:00,
2013-05-21 01:21:00,50.0,45.0,30.10,NNE,32,2.0,4.0,83,-99.99,,,-99.99,-0.100000,,2013-05-21 07:21:00,
2013-05-21 01:31:00,49.0,44.0,30.10,NNW,337,7.0,13.0,84,-99.99,,,-99.99,-0.100000,,2013-05-21 07:31:00,
2013-05-21 01:41:00,50.0,44.0,30.10,NNE,18,6.0,7.0,82,-99.99,,,-99.99,-0.100000,,2013-05-21 07:41:00,
2013-05-21 01:51:00,49.0,44.0,30.10,East,100,3.0,4.0,82,-99.99,,,-99.99,-0.100000,,2013-05-21 07:51:00,
2013-05-21 02:01:00,49.0,43.0,30.10,ENE,71,3.0,5.0,81,-99.99,,,-99.99,-0.100000,,2013-05-21 08:01:00,
2013-05-21 02:11:00,49.0,43.0,30.10,SE,142,4.0,5.0,80,-99.99,,,-99.99,0.000000,,2013-05-21 08:11:00,
2013-05-21 02:21:00,48.0,43.0,30.10,SE,145,8.0,9.0,82,-99.99,,,-99.99,0.000000,,2013-05-21 08:21:00,
2013-05-21 02:31:00,48.0,42.0,30.09,ESE,121,6.0,8.0,79,-99.99,,,-99.99,0.000000,,2013-05-21 08:31:00,
2013-05-21 02:41:00,47.0,41.0,30.09,East,94,3.0,4.0,80,-99.99,,,-99.99,-0.100000,,2013-05-21 08:41:00,
2013-05-21 02:52:00,47.0,41.0,30.09,SSE,154,4.0,6.0,79,-99.99,,,-99.99,0.000000,,2013-05-21 08:52:00,
2013-05-21 03:01:00,47.0,41.0,30.09,SE,140,5.0,7.0,80,-99.99,,,-99.99,0.000000,,2013-05-21 09:01:00,
2013-05-21 03:11:00,48.0,41.0,30.09,SSE,162,7.0,11.0,76,-99.99,,,-99.99,0.000000,,2013-05-21 09:11:00,
2013-05-21 03:21:00,49.0,40.0,30.08,SSE,162,6.0,9.0,71,-99.99,,,-99.99,0.000000,,2013-05-21 09:21:00,
2013-05-21 03:32:00,49.0,40.0,30.08,South,180,4.0,9.0,72,-99.99,,,-99.99,0.100000,,2013-05-21 09:32:00,
2013-05-21 03:41:00,50.0,40.0,30.08,South,175,6.0,10.0,68,-99.99,,,-99.99,-0.100000,,2013-05-21 09:41:00,
2013-05-21 03:52:00,50.0,40.0,30.08,South,187,10.0,14.0,67,-99.99,,,-99.99,0.000000,,2013-05-21 09:52:00,
2013-05-21 04:02:00,50.0,40.0,30.08,South,178,9.0,13.0,68,-99.99,,,-99.99,0.100000,,2013-05-21 10:02:00,
2013-05-21 04:12:00,49.0,40.0,30.08,South,173,5.0,7.0,70,-99.99,,,-99.99,-0.100000,,2013-05-21 10:12:00,
2013-05-21 04:22:00,49.0,40.0,30.08,South,173,5.0,6.0,69,-99.99,,,-99.99,0.000000,,2013-05-21 10:22:00,
2013-05-21 04:32:00,49.0,40.0,30.08,SSE,162,6.0,9.0,70,-99.99,,,-99.99,-0.200000,,2013-05-21 10:32:00,
2013-05-21 04:41:00,48.0,40.0,30.07,SSE,167,3.0,4.0,73,-99.99,,,-99.99,-0.100000,,2013-05-21 10:41:00,
2013-05-21 04:52:00,47.0,40.0,30.07,SSE,156,5.0,8.0,75,-99.99,,,-99.99,-0.300000,,2013-05-21 10:52:00,
2013-05-21 05:02:00,48.0,40.0,30.07,SSE,151,11.0,13.0,74,-99.99,,,-99.99,0.000000,,2013-05-21 11:02:00,
2013-05-21 05:11:00,49.0,40.0,30.07,SSE,153,8.0,11.0,71,-99.99,,,-99.99,0.000000,,2013-05-21 11:11:00,
2013-05-21 05:21:00,48.0,40.0,30.07,SSE,165,6.0,9.0,72,-99.99,,,-99.99,-0.100000,,2013-05-21 11:21:00,
2013-05-21 05:31:00,48.0,39.0,30.07,SE,129,5.0,9.0,72,-99.99,,,-99.99,-0.100000,,2013-05-21 11:31:00,
2013-05-21 05:41:00,47.0,39.0,30.07,ESE,120,3.0,6.0,75,-99.99,,,-99.99,0.000000,,2013-05-21 11:41:00,
2013-05-21 05:51:00,46.0,39.0,30.07,ESE,123,5.0,7.0,74,-99.99,,,-99.99,0.000000,,2013-05-21 11:51:00,
2013-05-21 06:01:00,45.0,39.0,30.07,ESE,117,6.0,7.0,77,-99.99,,,-99.99,0.400000,,2013-05-21 12:01:00,
2013-05-21 06:11:00,44.0,38.0,30.06,SE,126,4.0,6.0,80,-99.99,,,-99.99,2.300000,,2013-05-21 12:11:00,
2013-05-21 06:21:00,43.0,38.0,30.06,SE,132,3.0,5.0,83,-99.99,,,-99.99,6.700000,,2013-05-21 12:21:00,
2013-05-21 06:31:00,44.0,39.0,30.06,SE,139,2.0,3.0,81,-99.99,,,-99.99,12.100000,,2013-05-21 12:31:00,
2013-05-21 06:41:00,43.0,38.0,30.06,SE,142,2.0,2.0,82,-99.99,,,-99.99,37.599998,,2013-05-21 12:41:00,
2013-05-21 06:51:00,45.0,39.0,30.06,SE,137,2.0,3.0,79,-99.99,,,-99.99,58.799999,,2013-05-21 12:51:00,
2013-05-21 07:01:00,44.0,39.0,30.06,East,83,3.0,5.0,82,-99.99,,,-99.99,91.199997,,2013-05-21 13:01:00,
2013-05-21 07:11:00,45.0,39.0,30.06,East,92,2.0,3.0,79,-99.99,,,-99.99,125.400002,,2013-05-21 13:11:00,
2013-05-21 07:21:00,45.0,39.0,30.06,East,97,3.0,4.0,78,-99.99,,,-99.99,152.600006,,2013-05-21 13:21:00,
2013-05-21 07:31:00,47.0,39.0,30.05,ESE,111,5.0,9.0,74,-99.99,,,-99.99,182.600006,,2013-05-21 13:31:00,
2013-05-21 07:41:00,49.0,39.0,30.05,East,87,5.0,7.0,68,-99.99,,,-99.99,213.000000,,2013-05-21 13:41:00,
2013-05-21 07:52:00,51.0,41.0,30.05,ESE,110,4.0,10.0,69,-99.99,,,-99.99,246.199997,,2013-05-21 13:52:00,
2013-05-21 08:01:00,52.0,42.0,30.04,ENE,65,5.0,8.0,68,-99.99,,,-99.99,279.200012,,2013-05-21 14:01:00,
2013-05-21 08:11:00,53.0,42.0,30.05,NE,44,3.0,5.0,65,-99.99,,,-99.99,314.000000,,2013-05-21 14:11:00,
2013-05-21 08:21:00,53.0,41.0,30.04,NE,52,3.0,5.0,64,-99.99,,,-99.99,349.100006,,2013-05-21 14:21:00,
2013-05-21 08:31:00,54.0,42.0,30.04,ESE,103,4.0,5.0,63,-99.99,,,-99.99,382.100006,,2013-05-21 14:31:00,
2013-05-21 08:41:00,55.0,42.0,30.05,ESE,107,5.0,6.0,62,-99.99,,,-99.99,416.399994,,2013-05-21 14:41:00,
2013-05-21 08:51:00,56.0,42.0,30.04,ESE,114,7.0,11.0,59,-99.99,,,-99.99,446.600006,,2013-05-21 14:51:00,
2013-05-21 09:01:00,57.0,43.0,30.04,ESE,114,7.0,11.0,58,-99.99,,,-99.99,480.399994,,2013-05-21 15:01:00,
2013-05-21 09:11:00,58.0,43.0,30.04,ESE,109,6.0,8.0,58,-99.99,,,-99.99,514.099976,,2013-05-21 15:11:00,
2013-05-21 09:21:00,58.0,43.0,30.04,East,96,6.0,11.0,56,-99.99,,,-99.99,551.900024,,2013-05-21 15:21:00,
2013-05-21 09:32:00,59.0,44.0,30.04,East,85,5.0,9.0,57,-99.99,,,-99.99,580.400024,,2013-05-21 15:32:00,
2013-05-21 09:42:00,60.0,44.0,30.03,East,97,7.0,15.0,55,-99.99,,,-99.99,615.700012,,2013-05-21 15:42:00,
2013-05-21 09:52:00,60.0,45.0,30.03,ENE,74,6.0,12.0,56,-99.99,,,-99.99,634.099976,,2013-05-21 15:52:00,
2013-05-21 10:02:00,60.0,44.0,30.03,East,82,7.0,12.0,55,-99.99,,,-99.99,663.599976,,2013-05-21 16:02:00,
2013-05-21 10:12:00,60.0,44.0,30.03,East,85,5.0,8.0,56,-99.99,,,-99.99,622.000000,,2013-05-21 16:12:00,
2013-05-21 10:23:00,61.0,45.0,30.03,East,95,4.0,7.0,55,-99.99,,,-99.99,736.200012,,2013-05-21 16:23:00,
2013-05-21 10:32:00,64.0,44.0,30.02,SSE,148,12.0,18.0,47,-99.99,,,-99.99,760.500000,,2013-05-21 16:32:00,
2013-05-21 10:42:00,64.0,44.0,30.01,SSE,164,13.0,19.0,48,-99.99,,,-99.99,799.599976,,2013-05-21 16:42:00,
2013-05-21 10:52:00,63.0,45.0,30.01,SW,222,5.0,9.0,51,-99.99,,,-99.99,817.000000,,2013-05-21 16:52:00,
2013-05-21 11:02:00,64.0,44.0,30.01,SSW,193,5.0,9.0,47,-99.99,,,-99.99,972.000000,,2013-05-21 17:02:00,
2013-05-21 11:11:00,65.0,44.0,30.00,SW,217,9.0,13.0,46,-99.99,,,-99.99,958.000000,,2013-05-21 17:11:00,
2013-05-21 11:22:00,64.0,43.0,30.00,SW,231,7.0,12.0,45,-99.99,,,-99.99,161.500000,,2013-05-21 17:22:00,
2013-05-21 11:32:00,63.0,41.0,30.00,SSW,192,6.0,9.0,45,-99.99,,,-99.99,218.800003,,2013-05-21 17:32:00,
2013-05-21 11:43:00,64.0,41.0,30.00,SSW,209,8.0,11.0,43,-99.99,,,-99.99,239.399994,,2013-05-21 17:43:00,
2013-05-21 11:52:00,65.0,42.0,29.99,SSW,199,6.0,14.0,44,-99.99,,,-99.99,1039.000000,,2013-05-21 17:52:00,
2013-05-21 12:01:00,64.0,38.0,29.99,South,187,9.0,13.0,38,-99.99,,,-99.99,485.500000,,2013-05-21 18:01:00,
2013-05-21 12:11:00,67.0,41.0,29.98,WSW,246,7.0,12.0,39,-99.99,,,-99.99,1172.000000,,2013-05-21 18:11:00,
2013-05-21 12:21:00,67.0,41.0,29.97,SSW,194,10.0,14.0,38,-99.99,,,-99.99,1037.000000,,2013-05-21 18:21:00,
2013-05-21 12:32:00,67.0,39.0,29.97,South,184,10.0,14.0,36,-99.99,,,-99.99,742.900024,,2013-05-21 18:32:00,
2013-05-21 12:41:00,67.0,38.0,29.96,South,176,11.0,16.0,35,-99.99,,,-99.99,213.800003,,2013-05-21 18:41:00,
2013-05-21 12:51:00,67.0,38.0,29.96,South,169,11.0,17.0,34,-99.99,,,-99.99,689.299988,,2013-05-21 18:51:00,
2013-05-21 13:01:00,68.0,37.0,29.95,SSE,153,11.0,15.0,33,-99.99,,,-99.99,538.000000,,2013-05-21 19:01:00,
2013-05-21 13:11:00,68.0,35.0,29.95,SSE,147,11.0,15.0,29,-99.99,,,-99.99,750.000000,,2013-05-21 19:11:00,
2013-05-21 13:21:00,67.0,36.0,29.94,South,169,16.0,20.0,32,-99.99,,,-99.99,253.500000,,2013-05-21 19:21:00,
2013-05-21 13:31:00,67.0,36.0,29.94,SSE,153,11.0,16.0,32,-99.99,,,-99.99,333.299988,,2013-05-21 19:31:00,
2013-05-21 13:41:00,67.0,37.0,29.93,SSE,150,17.0,25.0,33,-99.99,,,-99.99,485.399994,,2013-05-21 19:41:00,
2013-05-21 13:52:00,67.0,39.0,29.93,SSE,161,12.0,19.0,35,-99.99,,,-99.99,311.399994,,2013-05-21 19:52:00,
2013-05-21 14:03:00,67.0,38.0,29.93,SSE,165,15.0,19.0,34,-99.99,,,-99.99,369.000000,,2013-05-21 20:03:00,
2013-05-21 14:21:00,69.0,39.0,29.91,SSE,160,16.0,23.0,33,-99.99,,,-99.99,340.399994,,2013-05-21 20:21:00,
2013-05-21 14:32:00,67.0,38.0,29.91,SSE,163,14.0,19.0,34,-99.99,,,-99.99,340.000000,,2013-05-21 20:32:00,
2013-05-21 14:41:00,68.0,37.0,29.91,SSE,164,15.0,21.0,32,-99.99,,,-99.99,593.599976,,2013-05-21 20:41:00,
2013-05-21 14:52:00,69.0,38.0,29.90,South,185,13.0,20.0,32,-99.99,,,-99.99,584.299988,,2013-05-21 20:52:00,
2013-05-21 15:01:00,69.0,36.0,29.90,SSW,201,13.0,20.0,30,-99.99,,,-99.99,855.000000,,2013-05-21 21:01:00,
2013-05-21 15:11:00,69.0,34.0,29.89,South,191,13.0,18.0,27,-99.99,,,-99.99,338.399994,,2013-05-21 21:11:00,
2013-05-21 15:21:00,69.0,36.0,29.89,South,191,9.0,17.0,30,-99.99,,,-99.99,582.099976,,2013-05-21 21:21:00,
2013-05-21 15:32:00,69.0,38.0,29.88,South,185,15.0,23.0,31,-99.99,,,-99.99,827.000000,,2013-05-21 21:32:00,
2013-05-21 15:43:00,69.0,37.0,29.88,South,179,13.0,20.0,30,-99.99,,,-99.99,270.600006,,2013-05-21 21:43:00,
2013-05-21 15:53:00,68.0,38.0,29.88,SSE,165,17.0,26.0,34,-99.99,,,-99.99,383.399994,,2013-05-21 21:53:00,
2013-05-21 16:02:00,68.0,37.0,29.87,South,177,16.0,23.0,32,-99.99,,,-99.99,488.899994,,2013-05-21 22:02:00,
2013-05-21 16:12:00,69.0,38.0,29.87,SSE,155,16.0,24.0,32,-99.99,,,-99.99,498.799988,,2013-05-21 22:12:00,
2013-05-21 16:22:00,68.0,38.0,29.86,SSE,155,14.0,20.0,34,-99.99,,,-99.99,416.600006,,2013-05-21 22:22:00,
2013-05-21 16:33:00,70.0,38.0,29.86,SSE,166,16.0,23.0,31,-99.99,,,-99.99,687.200012,,2013-05-21 22:33:00,
2013-05-21 16:41:00,69.0,34.0,29.86,South,186,14.0,20.0,27,-99.99,,,-99.99,438.700012,,2013-05-21 22:41:00,
2013-05-21 16:52:00,69.0,34.0,29.85,South,184,13.0,23.0,27,-99.99,,,-99.99,377.100006,,2013-05-21 22:52:00,
2013-05-21 17:02:00,69.0,39.0,29.84,SSE,161,17.0,25.0,33,-99.99,,,-99.99,365.100006,,2013-05-21 23:02:00,
2013-05-21 17:11:00,68.0,38.0,29.84,SSE,164,17.0,25.0,32,-99.99,,,-99.99,360.299988,,2013-05-21 23:11:00,
2013-05-21 17:22:00,68.0,38.0,29.84,SSE,161,17.0,24.0,33,-99.99,,,-99.99,567.200012,,2013-05-21 23:22:00,
2013-05-21 17:32:00,70.0,39.0,29.83,SSE,155,16.0,23.0,32,-99.99,,,-99.99,487.000000,,2013-05-21 23:32:00,
2013-05-21 17:41:00,70.0,38.0,29.83,SSE,166,15.0,22.0,32,-99.99,,,-99.99,708.400024,,2013-05-21 23:41:00,
2013-05-21 17:52:00,70.0,37.0,29.83,South,169,17.0,25.0,30,-99.99,,,-99.99,397.700012,,2013-05-21 23:52:00,
2013-05-21 18:01:00,70.0,37.0,29.82,SSE,158,18.0,24.0,30,-99.99,,,-99.99,503.799988,,2013-05-22 00:01:00,
2013-05-21 18:11:00,70.0,37.0,29.82,SSE,167,16.0,21.0,29,-99.99,,,-99.99,610.599976,,2013-05-22 00:11:00,
2013-05-21 18:21:00,70.0,36.0,29.81,SSE,166,16.0,24.0,28,-99.99,,,-99.99,556.400024,,2013-05-22 00:21:00,
2013-05-21 18:31:00,70.0,36.0,29.81,SSE,163,19.0,24.0,29,-99.99,,,-99.99,493.899994,,2013-05-22 00:31:00,
2013-05-21 18:41:00,69.0,36.0,29.80,SSE,164,17.0,22.0,29,-99.99,,,-99.99,462.899994,,2013-05-22 00:41:00,
2013-05-21 18:51:00,70.0,37.0,29.80,SSE,154,16.0,22.0,30,-99.99,,,-99.99,426.200012,,2013-05-22 00:51:00,
2013-05-21 19:01:00,69.0,36.0,29.79,SSE,163,18.0,28.0,30,-99.99,,,-99.99,380.500000,,2013-05-22 01:01:00,
2013-05-21 19:11:00,69.0,36.0,29.79,SSE,156,18.0,25.0,30,-99.99,,,-99.99,343.100006,,2013-05-22 01:11:00,
2013-05-21 19:21:00,69.0,36.0,29.79,SSE,165,16.0,22.0,29,-99.99,,,-99.99,266.500000,,2013-05-22 01:21:00,
2013-05-21 19:31:00,68.0,36.0,29.79,SSE,160,14.0,19.0,31,-99.99,,,-99.99,164.000000,,2013-05-22 01:31:00,
2013-05-21 19:41:00,67.0,36.0,29.78,SSE,160,15.0,20.0,32,-99.99,,,-99.99,195.300003,,2013-05-22 01:41:00,
2013-05-21 19:52:00,67.0,37.0,29.78,SSE,155,15.0,20.0,33,-99.99,,,-99.99,218.899994,,2013-05-22 01:52:00,
2013-05-21 20:01:00,66.0,37.0,29.77,SSE,157,14.0,18.0,33,-99.99,,,-99.99,69.699997,,2013-05-22 02:01:00,
2013-05-21 20:11:00,66.0,37.0,29.78,SSE,160,13.0,18.0,34,-99.99,,,-99.99,85.300003,,2013-05-22 02:11:00,
2013-05-21 20:21:00,66.0,36.0,29.78,SSE,159,13.0,20.0,33,-99.99,,,-99.99,110.199997,,2013-05-22 02:21:00,
2013-05-21 20:31:00,66.0,37.0,29.77,SSE,159,12.0,17.0,34,-99.99,,,-99.99,27.500000,,2013-05-22 02:31:00,
2013-05-21 20:41:00,64.0,37.0,29.77,SSE,158,11.0,15.0,36,-99.99,,,-99.99,16.700001,,2013-05-22 02:41:00,
2013-05-21 20:51:00,64.0,37.0,29.77,SSE,159,10.0,14.0,37,-99.99,,,-99.99,10.900000,,2013-05-22 02:51:00,
2013-05-21 21:01:00,63.0,37.0,29.77,SSE,158,10.0,14.0,38,-99.99,,,-99.99,6.100000,,2013-05-22 03:01:00,
2013-05-21 21:11:00,62.0,38.0,29.77,SSE,158,9.0,12.0,41,-99.99,,,-99.99,2.800000,,2013-05-22 03:11:00,
2013-05-21 21:21:00,61.0,38.0,29.77,SSE,156,8.0,11.0,42,-99.99,,,-99.99,1.200000,,2013-05-22 03:21:00,
2013-05-21 21:33:00,61.0,37.0,29.76,SSE,158,7.0,13.0,41,-99.99,,,-99.99,0.400000,,2013-05-22 03:33:00,
2013-05-21 21:43:00,60.0,38.0,29.76,SSE,156,7.0,11.0,43,-99.99,,,-99.99,-0.200000,,2013-05-22 03:43:00,
2013-05-21 21:53:00,60.0,37.0,29.76,ESE,118,5.0,6.0,43,-99.99,,,-99.99,-0.100000,,2013-05-22 03:53:00,
2013-05-21 22:03:00,59.0,38.0,29.76,ENE,60,5.0,6.0,46,-99.99,,,-99.99,0.000000,,2013-05-22 04:03:00,
2013-05-21 22:12:00,59.0,37.0,29.76,East,100,4.0,8.0,44,-99.99,,,-99.99,-0.100000,,2013-05-22 04:12:00,
2013-05-21 22:22:00,59.0,36.0,29.76,East,95,4.0,8.0,41,-99.99,,,-99.99,0.000000,,2013-05-22 04:22:00,
2013-05-21 22:33:00,58.0,36.0,29.76,NNE,15,4.0,6.0,45,-99.99,,,-99.99,0.000000,,2013-05-22 04:33:00,
2013-05-21 22:42:00,60.0,36.0,29.75,NNE,25,5.0,7.0,40,-99.99,,,-99.99,-0.100000,,2013-05-22 04:42:00,
2013-05-21 22:52:00,55.0,37.0,29.75,North,352,4.0,6.0,50,-99.99,,,-99.99,-0.100000,,2013-05-22 04:52:00,
2013-05-21 23:02:00,56.0,36.0,29.74,NE,51,3.0,5.0,46,-99.99,,,-99.99,-0.100000,,2013-05-22 05:02:00,
2013-05-21 23:11:00,56.0,37.0,29.74,NE,54,5.0,6.0,49,-99.99,,,-99.99,-0.100000,,2013-05-22 05:11:00,
2013-05-21 23:21:00,57.0,35.0,29.73,North,357,4.0,6.0,43,-99.99,,,-99.99,0.000000,,2013-05-22 05:21:00,
2013-05-21 23:31:00,57.0,36.0,29.73,NW,312,4.0,6.0,45,-99.99,,,-99.99,-0.100000,,2013-05-22 05:31:00,
2013-05-21 23:41:00,59.0,35.0,29.73,ESE,122,6.0,12.0,41,-99.99,,,-99.99,0.000000,,2013-05-22 05:41:00,
2013-05-21 23:51:00,58.0,36.0,29.72,NE,46,4.0,7.0,43,-99.99,,,-99.99,-0.100000,,2013-05-22 05:51:00,